createdAt,value
2022-08-31T20:15:38.254Z,15.20
2022-08-31T20:16:43.470Z,15.17
2022-08-31T20:17:48.739Z,15.15
2022-08-31T20:18:57.928Z,15.13
2022-08-31T20:20:03.213Z,15.06
2022-08-31T20:21:17.293Z,15.03
2022-08-31T20:22:23.706Z,14.97
2022-08-31T20:23:30.406Z,14.92
2022-08-31T20:24:35.404Z,14.87
2022-08-31T20:25:38.913Z,14.85
2022-08-31T20:26:51.977Z,14.83
2022-08-31T20:27:54.351Z,14.78
2022-08-31T20:29:04.319Z,14.74
2022-08-31T20:30:10.982Z,14.70
2022-08-31T20:31:13.715Z,14.65
2022-08-31T20:32:18.597Z,14.60
2022-08-31T20:33:22.239Z,14.55
2022-08-31T20:34:29.269Z,14.55
2022-08-31T20:35:32.624Z,14.52
2022-08-31T20:36:39.688Z,14.47
2022-08-31T20:37:41.816Z,14.48
2022-08-31T20:38:46.542Z,14.51
2022-08-31T20:39:52.089Z,14.47
2022-08-31T20:40:55.294Z,14.45
2022-08-31T20:42:03.346Z,14.40
2022-08-31T20:43:12.823Z,14.37
2022-08-31T20:44:22.982Z,14.35
2022-08-31T20:45:25.191Z,14.31
2022-08-31T20:46:43.228Z,14.29
2022-08-31T20:48:00.359Z,14.27
2022-08-31T20:49:23.408Z,14.22
2022-08-31T20:50:29.910Z,14.17
2022-08-31T20:51:40.416Z,14.15
2022-08-31T20:52:45.748Z,14.13
2022-08-31T20:53:51.176Z,14.06
2022-08-31T20:55:01.325Z,14.02
2022-08-31T20:56:06.037Z,14.01
2022-08-31T20:57:11.877Z,14.01
2022-08-31T20:58:14.537Z,14.00
2022-08-31T20:59:24.577Z,13.97
2022-08-31T21:00:26.701Z,13.94
2022-08-31T21:01:32.149Z,13.94
2022-08-31T21:02:34.807Z,13.94
2022-08-31T21:03:39.909Z,13.94
2022-08-31T21:04:45.373Z,13.95
2022-08-31T21:05:51.012Z,13.92
2022-08-31T21:06:53.329Z,13.90
2022-08-31T21:07:58.575Z,13.87
2022-08-31T21:09:02.050Z,13.86
2022-08-31T21:10:08.005Z,13.84
2022-08-31T21:11:12.311Z,13.83
2022-08-31T21:12:18.511Z,13.80
2022-08-31T21:13:20.819Z,13.79
2022-08-31T21:14:30.831Z,13.82
2022-08-31T21:15:32.964Z,13.79
2022-08-31T21:16:37.976Z,13.78
2022-08-31T21:17:40.781Z,13.77
2022-08-31T21:18:45.853Z,13.79
2022-08-31T21:19:49.206Z,13.79
2022-08-31T21:20:57.970Z,13.75
2022-08-31T21:22:05.439Z,13.73
2022-08-31T21:23:13.390Z,13.72
2022-08-31T21:24:18.053Z,13.72
2022-08-31T21:25:23.088Z,13.69
2022-08-31T21:26:27.234Z,13.70
2022-08-31T21:27:33.083Z,13.66
2022-08-31T21:28:38.372Z,13.68
2022-08-31T21:29:47.161Z,13.62
2022-08-31T21:30:50.634Z,13.60
2022-08-31T21:32:02.608Z,13.59
2022-08-31T21:33:05.206Z,13.56
2022-08-31T21:34:10.337Z,13.56
2022-08-31T21:35:15.079Z,13.52
2022-08-31T21:36:23.355Z,13.51
2022-08-31T21:37:25.458Z,13.59
2022-08-31T21:38:30.039Z,13.52
2022-08-31T21:39:32.531Z,13.48
2022-08-31T21:40:37.221Z,13.46
2022-08-31T21:41:39.482Z,13.43
2022-08-31T21:42:44.025Z,13.40
2022-08-31T21:43:46.341Z,13.37
2022-08-31T21:44:53.490Z,13.35
2022-08-31T21:46:02.502Z,13.34
2022-08-31T21:47:08.152Z,13.34
2022-08-31T21:48:10.137Z,13.31
2022-08-31T21:49:14.721Z,13.31
2022-08-31T21:50:17.063Z,13.33
2022-08-31T21:51:24.234Z,13.31
2022-08-31T21:52:26.182Z,13.31
2022-08-31T21:53:30.640Z,13.29
2022-08-31T21:54:32.695Z,13.28
2022-08-31T21:55:39.897Z,13.26
2022-08-31T21:56:43.890Z,13.24
2022-08-31T21:57:48.466Z,13.20
2022-08-31T21:58:52.063Z,13.18
2022-08-31T21:59:59.695Z,13.21
2022-08-31T22:01:02.511Z,13.16
2022-08-31T22:02:11.251Z,13.10
2022-08-31T22:03:14.351Z,13.11
2022-08-31T22:04:21.225Z,13.08
2022-08-31T22:05:23.194Z,13.08
2022-08-31T22:06:31.127Z,13.05
2022-08-31T22:07:33.240Z,13.07
2022-08-31T22:08:38.366Z,13.07
2022-08-31T22:09:40.941Z,13.06
2022-08-31T22:10:46.629Z,13.07
2022-08-31T22:11:52.750Z,13.08
2022-08-31T22:12:57.322Z,13.07
2022-08-31T22:13:59.727Z,13.11
2022-08-31T22:15:10.986Z,13.18
2022-08-31T22:16:19.343Z,13.16
2022-08-31T22:17:42.270Z,13.15
2022-08-31T22:19:07.200Z,13.15
2022-08-31T22:20:17.679Z,13.13
2022-08-31T22:22:36.927Z,13.15
2022-08-31T22:23:39.020Z,13.17
2022-08-31T22:24:44.473Z,13.21
2022-08-31T22:25:46.748Z,13.19
2022-08-31T22:26:52.979Z,13.25
2022-08-31T22:27:55.042Z,13.21
2022-08-31T22:28:59.836Z,13.17
2022-08-31T22:30:05.448Z,13.15
2022-08-31T22:31:10.929Z,13.14
2022-08-31T22:32:15.253Z,13.13
2022-08-31T22:33:19.845Z,13.07
2022-08-31T22:34:22.132Z,13.11
2022-08-31T22:35:26.744Z,13.05
2022-08-31T22:36:32.351Z,13.03
2022-08-31T22:37:39.490Z,13.01
2022-08-31T22:38:42.779Z,12.99
2022-08-31T22:39:48.191Z,13.01
2022-08-31T22:40:50.766Z,13.00
2022-08-31T22:41:56.025Z,12.95
2022-08-31T22:42:58.717Z,12.89
2022-08-31T22:44:03.952Z,12.87
2022-08-31T22:45:09.919Z,12.92
2022-08-31T22:46:15.908Z,12.90
2022-08-31T22:47:20.590Z,12.93
2022-08-31T22:48:22.604Z,12.90
2022-08-31T22:49:28.193Z,12.87
2022-08-31T22:50:31.531Z,12.86
2022-08-31T22:51:37.023Z,12.86
2022-08-31T22:52:39.321Z,12.81
2022-08-31T22:53:46.201Z,12.81
2022-08-31T22:54:48.428Z,12.82
2022-08-31T22:55:53.042Z,12.81
2022-08-31T22:56:55.180Z,12.76
2022-08-31T22:57:59.989Z,12.70
2022-08-31T22:59:05.724Z,12.70
2022-08-31T23:00:14.786Z,12.67
2022-08-31T23:01:19.132Z,12.63
2022-08-31T23:02:28.871Z,12.61
2022-08-31T23:03:30.891Z,12.59
2022-08-31T23:04:41.852Z,12.63
2022-08-31T23:05:46.071Z,12.62
2022-08-31T23:06:52.220Z,12.60
2022-08-31T23:07:54.809Z,12.56
2022-08-31T23:09:00.959Z,12.58
2022-08-31T23:10:03.933Z,12.67
2022-08-31T23:11:08.901Z,12.64
2022-08-31T23:12:14.038Z,12.67
2022-08-31T23:13:16.098Z,12.65
2022-08-31T23:14:21.265Z,12.63
2022-08-31T23:15:26.588Z,12.62
2022-08-31T23:16:34.731Z,12.58
2022-08-31T23:17:38.205Z,12.54
2022-08-31T23:18:43.096Z,12.53
2022-08-31T23:19:54.269Z,12.49
2022-08-31T23:21:02.882Z,12.51
2022-08-31T23:22:09.387Z,12.48
2022-08-31T23:23:15.039Z,12.46
2022-08-31T23:24:21.230Z,12.48
2022-08-31T23:25:27.272Z,12.42
2022-08-31T23:26:30.491Z,12.44
2022-08-31T23:27:36.125Z,12.42
2022-08-31T23:28:39.435Z,12.40
2022-08-31T23:29:48.019Z,12.42
2022-08-31T23:30:52.788Z,12.42
2022-08-31T23:31:57.563Z,12.43
2022-08-31T23:33:02.233Z,12.40
2022-08-31T23:34:09.762Z,12.41
2022-08-31T23:35:13.610Z,12.37
2022-08-31T23:36:18.184Z,12.42
2022-08-31T23:37:24.176Z,12.43
2022-08-31T23:38:33.513Z,12.41
2022-08-31T23:39:39.125Z,12.46
2022-08-31T23:40:46.067Z,12.39
2022-08-31T23:41:48.985Z,12.37
2022-08-31T23:42:55.650Z,12.39
2022-08-31T23:43:58.899Z,12.43
2022-08-31T23:45:04.294Z,12.44
2022-08-31T23:46:09.021Z,12.39
2022-08-31T23:47:17.035Z,12.33
2022-08-31T23:48:19.320Z,12.39
2022-08-31T23:49:24.588Z,12.41
2022-08-31T23:50:26.588Z,12.37
2022-08-31T23:51:33.457Z,12.31
2022-08-31T23:52:37.669Z,12.32
2022-08-31T23:53:42.364Z,12.29
2022-08-31T23:54:44.925Z,12.25
2022-08-31T23:55:51.778Z,12.29
2022-08-31T23:56:57.834Z,12.24
2022-08-31T23:58:02.646Z,12.25
2022-08-31T23:59:09.281Z,12.24
